createdAt,value
2018-03-21T00:00:13.184Z,82.38
2018-03-21T00:01:13.334Z,82.00
2018-03-21T00:02:13.484Z,82.47
2018-03-21T00:03:13.634Z,82.57
2018-03-21T00:04:13.785Z,82.38
2018-03-21T00:05:13.945Z,82.76
2018-03-21T00:06:14.095Z,82.47
2018-03-21T00:07:14.829Z,82.19
2018-03-21T00:08:14.346Z,82.10
2018-03-21T00:09:14.496Z,81.91
2018-03-21T00:10:14.648Z,82.57
2018-03-21T00:11:14.794Z,82.76
2018-03-21T00:12:14.997Z,82.85
2018-03-21T00:13:15.100Z,82.57
2018-03-21T00:14:15.249Z,83.42
2018-03-21T00:15:15.401Z,83.14
2018-03-21T00:16:15.548Z,83.04
2018-03-21T00:17:15.701Z,82.66
2018-03-21T00:18:15.852Z,83.14
2018-03-21T00:19:16.001Z,82.66
2018-03-21T00:20:16.210Z,83.23
2018-03-21T00:21:16.298Z,82.57
2018-03-21T00:22:16.458Z,82.66
2018-03-21T00:23:16.609Z,83.23
2018-03-21T00:24:16.766Z,82.47
2018-03-21T00:25:16.918Z,82.57
2018-03-21T00:26:17.069Z,82.19
2018-03-21T00:27:17.225Z,81.91
2018-03-21T00:28:17.373Z,82.10
2018-03-21T00:29:17.528Z,82.28
2018-03-21T00:30:17.676Z,82.47
2018-03-21T00:31:17.825Z,82.66
2018-03-21T00:32:17.979Z,83.14
2018-03-21T00:33:18.131Z,83.42
2018-03-21T00:34:18.280Z,83.89
2018-03-21T00:35:18.430Z,83.42
2018-03-21T00:36:18.579Z,83.42
2018-03-21T00:37:18.732Z,83.23
2018-03-21T00:38:18.879Z,83.14
2018-03-21T00:39:19.031Z,83.14
2018-03-21T00:40:19.183Z,83.42
2018-03-21T00:41:19.336Z,83.23
2018-03-21T00:42:19.484Z,83.04
2018-03-21T00:43:19.631Z,82.47
2018-03-21T00:44:19.784Z,83.14
2018-03-21T00:45:19.934Z,83.42
2018-03-21T00:46:20.084Z,83.70
2018-03-21T00:47:20.236Z,83.51
2018-03-21T00:48:20.383Z,83.33
2018-03-21T00:49:20.539Z,83.70
2018-03-21T00:50:20.686Z,83.42
2018-03-21T00:51:20.836Z,83.70
2018-03-21T00:52:20.989Z,83.23
2018-03-21T00:53:21.142Z,83.61
2018-03-21T00:54:21.283Z,83.33
2018-03-21T00:55:21.433Z,83.61
2018-03-21T00:56:21.584Z,83.33
2018-03-21T00:57:21.741Z,83.33
2018-03-21T00:58:21.891Z,83.23
2018-03-21T00:59:22.040Z,83.23
2018-03-21T01:00:22.191Z,83.04
2018-03-21T01:01:22.341Z,82.57
2018-03-21T01:02:22.493Z,82.66
2018-03-21T01:03:22.650Z,82.85
2018-03-21T01:04:22.788Z,83.42
2018-03-21T01:05:22.938Z,82.95
2018-03-21T01:06:23.088Z,83.23
2018-03-21T01:07:23.247Z,83.04
2018-03-21T01:08:23.393Z,83.42
2018-03-21T01:09:23.546Z,83.70
2018-03-21T01:10:23.694Z,84.08
2018-03-21T01:11:23.864Z,84.36
2018-03-21T01:12:23.998Z,84.74
2018-03-21T01:13:24.152Z,84.36
2018-03-21T01:14:24.298Z,84.55
2018-03-21T01:15:24.448Z,84.08
2018-03-21T01:16:24.597Z,84.27
2018-03-21T01:17:24.753Z,84.36
2018-03-21T01:18:24.899Z,83.98
2018-03-21T01:19:25.055Z,84.17
2018-03-21T01:20:25.202Z,84.36
2018-03-21T01:21:25.352Z,84.64
2018-03-21T01:22:25.503Z,84.55
2018-03-21T01:23:25.651Z,83.89
2018-03-21T01:24:25.810Z,83.61
2018-03-21T01:25:25.948Z,83.65
2018-03-21T01:26:26.098Z,83.18
2018-03-21T01:27:26.254Z,83.18
2018-03-21T01:28:26.399Z,83.28
2018-03-21T01:29:26.551Z,83.18
2018-03-21T01:30:26.701Z,84.03
2018-03-21T01:31:26.850Z,83.75
2018-03-21T01:32:27.006Z,83.70
2018-03-21T01:33:27.152Z,83.65
2018-03-21T01:34:27.303Z,84.08
2018-03-21T01:35:27.454Z,84.17
2018-03-21T01:36:27.607Z,84.27
2018-03-21T01:37:27.760Z,84.17
2018-03-21T01:38:27.909Z,83.98
2018-03-21T01:39:28.054Z,84.17
2018-03-21T01:40:28.204Z,83.70
2018-03-21T01:41:28.372Z,83.80
2018-03-21T01:42:28.511Z,83.70
2018-03-21T01:43:28.658Z,84.17
2018-03-21T01:44:28.812Z,84.17
2018-03-21T01:45:28.960Z,84.45
2018-03-21T01:46:29.110Z,84.27
2018-03-21T01:47:29.267Z,84.27
2018-03-21T01:48:29.416Z,83.98
2018-03-21T01:49:29.566Z,84.36
2018-03-21T01:50:29.723Z,83.98
2018-03-21T01:51:29.865Z,84.55
2018-03-21T01:52:30.017Z,84.55
2018-03-21T01:53:30.171Z,84.36
2018-03-21T01:54:30.316Z,84.17
2018-03-21T01:55:30.467Z,83.70
2018-03-21T01:56:30.616Z,83.42
2018-03-21T01:57:30.770Z,82.90
2018-03-21T01:58:30.922Z,83.37
2018-03-21T01:59:31.070Z,83.28
2018-03-21T02:00:31.219Z,83.28
2018-03-21T02:01:31.381Z,83.28
2018-03-21T02:02:31.518Z,83.75
2018-03-21T02:03:31.668Z,84.17
2018-03-21T02:04:31.814Z,83.94
2018-03-21T02:05:31.964Z,84.32
2018-03-21T02:06:32.113Z,83.89
2018-03-21T02:07:32.263Z,84.27
2018-03-21T02:08:32.419Z,84.36
2018-03-21T02:09:32.559Z,83.70
2018-03-21T02:10:32.715Z,83.80
2018-03-21T02:11:32.862Z,83.33
2018-03-21T02:12:33.000Z,83.28
2018-03-21T02:13:33.149Z,83.65
2018-03-21T02:14:33.303Z,83.56
2018-03-21T02:15:33.457Z,83.18
2018-03-21T02:16:33.607Z,83.37
2018-03-21T02:17:33.748Z,83.75
2018-03-21T02:18:33.894Z,83.18
2018-03-21T02:19:34.047Z,83.28
2018-03-21T02:20:34.192Z,83.18
2018-03-21T02:21:34.343Z,83.37
2018-03-21T02:22:34.491Z,83.18
2018-03-21T02:23:34.643Z,84.03
2018-03-21T02:24:34.788Z,84.22
2018-03-21T02:25:34.942Z,83.37
2018-03-21T02:26:35.092Z,82.81
2018-03-21T02:27:35.241Z,82.71
2018-03-21T02:28:35.394Z,82.43
2018-03-21T02:29:35.542Z,83.28
2018-03-21T02:30:35.693Z,83.37
2018-03-21T02:31:35.842Z,83.28
2018-03-21T02:32:35.993Z,83.75
2018-03-21T02:33:36.148Z,83.65
2018-03-21T02:34:36.295Z,83.18
2018-03-21T02:35:36.494Z,83.18
2018-03-21T02:36:36.595Z,83.18
2018-03-21T02:37:36.747Z,83.94
2018-03-21T02:38:36.905Z,83.84
2018-03-21T02:39:37.048Z,83.84
2018-03-21T02:40:37.198Z,83.84
2018-03-21T02:41:37.347Z,83.75
2018-03-21T02:42:37.498Z,83.75
2018-03-21T02:43:37.669Z,84.13
2018-03-21T02:44:37.804Z,84.13
2018-03-21T02:45:37.953Z,84.41
2018-03-21T02:46:38.102Z,83.75
2018-03-21T02:47:38.252Z,83.18
2018-03-21T02:48:38.406Z,83.18
2018-03-21T02:49:38.550Z,83.00
2018-03-21T02:50:38.706Z,83.37
2018-03-21T02:51:38.855Z,83.28
2018-03-21T02:52:39.005Z,83.37
2018-03-21T02:53:39.159Z,83.18
2018-03-21T02:54:39.302Z,83.65
2018-03-21T02:55:39.454Z,82.71
2018-03-21T02:56:39.604Z,82.43
2018-03-21T02:57:39.754Z,82.81
2018-03-21T02:58:39.912Z,82.90
2018-03-21T02:59:40.058Z,83.37
2018-03-21T03:00:40.208Z,83.18
2018-03-21T03:01:40.357Z,83.94
2018-03-21T03:02:40.505Z,83.75
2018-03-21T03:03:40.663Z,83.37
2018-03-21T03:04:40.822Z,83.37
2018-03-21T03:05:40.972Z,83.56
2018-03-21T03:06:41.115Z,82.90
2018-03-21T03:07:41.262Z,82.62
2018-03-21T03:08:41.412Z,83.09
2018-03-21T03:09:41.558Z,82.62
2018-03-21T03:10:41.713Z,82.15
2018-03-21T03:11:41.857Z,83.18
2018-03-21T03:12:42.012Z,82.53
2018-03-21T03:13:42.163Z,83.09
2018-03-21T03:14:42.310Z,83.09
2018-03-21T03:15:42.457Z,83.09
2018-03-21T03:16:42.608Z,83.28
2018-03-21T03:17:42.753Z,83.28
2018-03-21T03:18:42.905Z,83.37
2018-03-21T03:19:43.063Z,83.37
2018-03-21T03:20:43.202Z,82.90
2018-03-21T03:21:43.351Z,82.90
2018-03-21T03:22:43.497Z,82.71
2018-03-21T03:23:43.649Z,82.15
2018-03-21T03:24:43.798Z,81.77
2018-03-21T03:25:43.947Z,82.15
2018-03-21T03:26:44.101Z,81.68
2018-03-21T03:27:44.249Z,81.49
2018-03-21T03:28:44.398Z,82.06
2018-03-21T03:29:44.549Z,82.53
2018-03-21T03:30:44.701Z,82.90
2018-03-21T03:31:44.854Z,83.18
2018-03-21T03:32:45.003Z,82.53
2018-03-21T03:33:45.152Z,82.15
2018-03-21T03:34:45.301Z,81.87
2018-03-21T03:35:45.451Z,81.58
2018-03-21T03:36:45.604Z,81.58
2018-03-21T03:37:45.750Z,81.77
2018-03-21T03:38:45.902Z,81.87
2018-03-21T03:39:46.050Z,81.96
2018-03-21T03:40:46.200Z,82.06
2018-03-21T03:41:46.355Z,81.87
2018-03-21T03:42:46.501Z,81.77
2018-03-21T03:43:46.644Z,82.24
2018-03-21T03:44:46.797Z,82.62
2018-03-21T03:45:46.940Z,82.81
2018-03-21T03:46:47.092Z,82.90
2018-03-21T03:47:47.239Z,83.28
2018-03-21T03:48:47.391Z,84.28
2018-03-21T03:49:47.541Z,84.94
2018-03-21T03:50:47.690Z,85.41
2018-03-21T03:51:47.839Z,85.50
2018-03-21T03:52:47.989Z,85.26
2018-03-21T03:53:48.139Z,84.79
2018-03-21T03:54:48.293Z,84.51
2018-03-21T03:55:48.442Z,84.03
2018-03-21T03:56:48.591Z,84.41
2018-03-21T03:57:48.739Z,84.03
2018-03-21T03:58:48.896Z,84.03
2018-03-21T03:59:49.047Z,84.13
2018-03-21T04:00:49.195Z,84.03
2018-03-21T04:01:49.352Z,84.32
2018-03-21T04:02:49.493Z,83.75
2018-03-21T04:03:49.643Z,83.09
2018-03-21T04:04:49.800Z,83.28
2018-03-21T04:05:49.953Z,83.28
2018-03-21T04:06:50.100Z,83.37
2018-03-21T04:07:50.251Z,83.18
2018-03-21T04:08:50.395Z,83.28
2018-03-21T04:09:50.551Z,83.00
2018-03-21T04:10:50.699Z,82.71
2018-03-21T04:11:50.853Z,83.09
2018-03-21T04:12:50.998Z,82.62
2018-03-21T04:13:51.147Z,82.34
2018-03-21T04:14:51.305Z,82.15
2018-03-21T04:15:51.453Z,82.24
2018-03-21T04:16:51.602Z,81.77
2018-03-21T04:17:51.752Z,82.15
2018-03-21T04:18:51.900Z,82.43
2018-03-21T04:19:52.056Z,82.24
2018-03-21T04:20:52.204Z,82.53
2018-03-21T04:21:52.348Z,82.71
2018-03-21T04:22:52.497Z,82.53
2018-03-21T04:23:52.647Z,81.77
2018-03-21T04:24:52.795Z,82.81
2018-03-21T04:25:52.942Z,82.43
2018-03-21T04:26:53.088Z,82.53
2018-03-21T04:27:53.239Z,82.53
2018-03-21T04:28:53.385Z,82.81
2018-03-21T04:29:53.537Z,82.43
2018-03-21T04:30:53.685Z,82.15
2018-03-21T04:31:53.834Z,81.87
2018-03-21T04:32:54.008Z,82.15
2018-03-21T04:33:54.152Z,81.68
2018-03-21T04:34:54.311Z,81.30
2018-03-21T04:35:54.463Z,81.02
2018-03-21T04:36:54.604Z,81.11
2018-03-21T04:37:54.753Z,81.02
2018-03-21T04:38:54.901Z,80.54
2018-03-21T04:39:55.036Z,80.45
2018-03-21T04:40:55.185Z,80.45
2018-03-21T04:41:55.336Z,80.45
2018-03-21T04:42:55.482Z,81.11
2018-03-21T04:43:55.631Z,81.30
2018-03-21T04:44:55.777Z,82.06
2018-03-21T04:45:55.953Z,82.24
2018-03-21T04:46:56.072Z,81.87
2018-03-21T04:47:56.212Z,81.35
2018-03-21T04:48:56.375Z,81.49
2018-03-21T04:49:56.524Z,81.26
2018-03-21T04:50:56.679Z,80.60
2018-03-21T04:51:56.826Z,81.26
2018-03-21T04:52:56.977Z,81.58
2018-03-21T04:53:57.126Z,81.92
2018-03-21T04:54:57.277Z,82.48
2018-03-21T04:55:57.430Z,82.39
2018-03-21T04:56:57.576Z,82.58
2018-03-21T04:57:57.727Z,82.06
2018-03-21T04:58:57.877Z,82.10
2018-03-21T04:59:58.025Z,82.20
2018-03-21T05:00:58.182Z,82.53
2018-03-21T05:01:58.375Z,82.24
2018-03-21T05:02:58.480Z,82.53
2018-03-21T05:03:58.628Z,82.62
2018-03-21T05:04:58.778Z,82.81
2018-03-21T05:05:58.936Z,82.53
2018-03-21T05:06:59.082Z,82.34
2018-03-21T05:07:59.235Z,81.73
2018-03-21T05:08:59.381Z,81.82
2018-03-21T05:09:59.530Z,81.54
2018-03-21T05:10:59.689Z,81.45
2018-03-21T05:11:59.833Z,81.54
2018-03-21T05:12:59.984Z,81.35
2018-03-21T05:14:00.136Z,81.45
2018-03-21T05:15:00.280Z,82.01
2018-03-21T05:16:00.422Z,82.01
2018-03-21T05:17:00.574Z,82.10
2018-03-21T05:18:01.032Z,81.82
2018-03-21T05:19:01.232Z,81.58
2018-03-21T05:20:01.021Z,81.49
2018-03-21T05:21:01.171Z,81.26
2018-03-21T05:22:01.323Z,81.26
2018-03-21T05:23:01.467Z,81.54
2018-03-21T05:24:01.627Z,80.88
2018-03-21T05:25:01.774Z,81.45
2018-03-21T05:26:01.924Z,81.73
2018-03-21T05:27:02.076Z,82.39
2018-03-21T05:28:02.221Z,82.76
2018-03-21T05:29:02.378Z,82.29
2018-03-21T05:30:02.526Z,82.48
2018-03-21T05:31:02.674Z,82.29
2018-03-21T05:32:02.823Z,82.20
2018-03-21T05:33:02.973Z,81.92
2018-03-21T05:34:03.129Z,82.10
2018-03-21T05:35:03.275Z,82.29
2018-03-21T05:36:03.428Z,82.39
2018-03-21T05:37:03.597Z,82.58
2018-03-21T05:38:03.737Z,82.24
2018-03-21T05:39:03.887Z,82.48
2018-03-21T05:40:04.032Z,82.29
2018-03-21T05:41:04.186Z,82.58
2018-03-21T05:42:04.332Z,82.24
2018-03-21T05:43:04.481Z,82.48
2018-03-21T05:44:04.640Z,82.43
2018-03-21T05:45:04.788Z,82.34
2018-03-21T05:46:04.937Z,82.06
2018-03-21T05:47:05.088Z,82.06
2018-03-21T05:48:05.285Z,82.29
2018-03-21T05:49:05.385Z,82.29
2018-03-21T05:50:05.534Z,82.76
2018-03-21T05:51:05.688Z,82.86
2018-03-21T05:52:05.837Z,82.58
2018-03-21T05:53:05.985Z,82.62
2018-03-21T05:54:06.143Z,82.90
2018-03-21T05:55:06.288Z,82.34
2018-03-21T05:56:06.441Z,83.09
2018-03-21T05:57:06.590Z,82.53
2018-03-21T05:58:06.738Z,81.68
2018-03-21T05:59:06.892Z,81.40
2018-03-21T06:00:07.043Z,81.68
2018-03-21T06:01:07.184Z,81.58
2018-03-21T06:02:07.331Z,81.68
2018-03-21T06:03:07.480Z,81.68
2018-03-21T06:04:07.629Z,82.06
2018-03-21T06:05:07.781Z,81.87
2018-03-21T06:06:07.926Z,81.87
2018-03-21T06:07:08.077Z,81.87
2018-03-21T06:08:08.226Z,81.87
2018-03-21T06:09:08.369Z,82.53
2018-03-21T06:10:08.519Z,82.53
2018-03-21T06:11:08.666Z,81.77
2018-03-21T06:12:08.826Z,82.24
2018-03-21T06:13:08.976Z,81.87
2018-03-21T06:14:09.123Z,82.34
2018-03-21T06:15:09.272Z,82.53
2018-03-21T06:16:09.420Z,82.34
2018-03-21T06:17:09.578Z,82.62
2018-03-21T06:18:09.728Z,82.81
2018-03-21T06:19:09.876Z,83.18
2018-03-21T06:20:10.024Z,83.09
2018-03-21T06:21:10.172Z,83.94
2018-03-21T06:22:10.330Z,83.75
2018-03-21T06:23:10.478Z,83.56
2018-03-21T06:24:10.628Z,83.28
2018-03-21T06:25:10.779Z,83.18
2018-03-21T06:26:10.910Z,82.90
2018-03-21T06:27:11.055Z,83.00
2018-03-21T06:28:11.209Z,83.65
2018-03-21T06:29:11.355Z,84.03
2018-03-21T06:30:11.505Z,83.75
2018-03-21T06:31:11.659Z,84.13
2018-03-21T06:32:11.800Z,83.65
2018-03-21T06:33:11.950Z,84.32
2018-03-21T06:34:12.100Z,84.32
2018-03-21T06:35:12.248Z,85.26
2018-03-21T06:36:12.401Z,85.26
2018-03-21T06:37:12.547Z,85.17
2018-03-21T06:38:12.700Z,84.41
2018-03-21T06:39:12.853Z,84.13
2018-03-21T06:40:12.998Z,84.27
2018-03-21T06:41:13.165Z,84.03
2018-03-21T06:42:13.324Z,83.98
2018-03-21T06:43:13.461Z,84.55
2018-03-21T06:44:13.611Z,84.45
2018-03-21T06:45:13.760Z,84.64
2018-03-21T06:46:13.917Z,84.45
2018-03-21T06:47:14.057Z,84.83
2018-03-21T06:48:14.254Z,85.21
2018-03-21T06:49:14.357Z,85.21
2018-03-21T06:50:14.506Z,84.45
2018-03-21T06:51:14.656Z,84.83
2018-03-21T06:52:14.807Z,84.83
2018-03-21T06:53:14.956Z,84.74
2018-03-21T06:54:15.106Z,83.89
2018-03-21T06:55:15.254Z,84.17
2018-03-21T06:56:15.403Z,83.80
2018-03-21T06:57:15.554Z,83.70
2018-03-21T06:58:15.754Z,84.17
2018-03-21T06:59:15.853Z,84.08
2018-03-21T07:00:16.002Z,84.74
2018-03-21T07:01:16.150Z,84.64
2018-03-21T07:02:16.294Z,84.08
2018-03-21T07:03:16.449Z,84.08
2018-03-21T07:04:16.606Z,84.36
2018-03-21T07:05:16.748Z,84.50
2018-03-21T07:06:16.896Z,84.41
2018-03-21T07:07:17.047Z,84.78
2018-03-21T07:08:17.196Z,84.50
2018-03-21T07:09:17.348Z,83.84
2018-03-21T07:10:17.496Z,83.93
2018-03-21T07:11:17.647Z,83.27
2018-03-21T07:12:17.795Z,82.99
2018-03-21T07:13:17.953Z,82.51
2018-03-21T07:14:18.112Z,82.51
2018-03-21T07:15:18.249Z,83.27
2018-03-21T07:16:18.402Z,82.70
2018-03-21T07:17:18.548Z,83.27
2018-03-21T07:18:18.734Z,82.99
2018-03-21T07:19:18.884Z,83.27
2018-03-21T07:20:19.043Z,83.46
2018-03-21T07:21:19.191Z,83.74
2018-03-21T07:22:19.348Z,83.27
2018-03-21T07:23:19.633Z,82.99
2018-03-21T07:24:19.630Z,82.23
2018-03-21T07:25:19.779Z,81.95
2018-03-21T07:26:19.930Z,82.42
2018-03-21T07:27:20.074Z,83.17
2018-03-21T07:28:20.224Z,82.51
2018-03-21T07:29:20.377Z,82.89
2018-03-21T07:30:20.519Z,83.46
2018-03-21T07:31:20.670Z,82.99
2018-03-21T07:32:20.819Z,82.32
2018-03-21T07:33:20.978Z,82.32
2018-03-21T07:34:21.129Z,81.76
2018-03-21T07:35:21.279Z,81.48
2018-03-21T07:36:21.431Z,81.67
2018-03-21T07:37:21.580Z,82.18
2018-03-21T07:38:21.737Z,82.56
2018-03-21T07:39:21.882Z,82.37
2018-03-21T07:40:22.031Z,82.18
2018-03-21T07:41:22.182Z,82.37
2018-03-21T07:42:22.335Z,82.37
2018-03-21T07:43:22.486Z,81.99
2018-03-21T07:44:22.636Z,82.65
2018-03-21T07:45:22.791Z,82.84
2018-03-21T07:46:22.933Z,83.22
2018-03-21T07:47:23.089Z,83.03
2018-03-21T07:48:23.240Z,82.84
2018-03-21T07:49:23.384Z,83.22
2018-03-21T07:50:23.542Z,83.22
2018-03-21T07:51:23.702Z,82.84
2018-03-21T07:52:23.845Z,81.33
2018-03-21T07:53:23.992Z,81.61
2018-03-21T07:54:24.139Z,81.42
2018-03-21T07:55:24.313Z,81.23
2018-03-21T07:56:24.488Z,81.04
2018-03-21T07:57:24.607Z,80.62
2018-03-21T07:58:24.748Z,80.62
2018-03-21T07:59:24.899Z,80.43
2018-03-21T08:00:25.057Z,80.24
2018-03-21T08:01:25.275Z,80.62
2018-03-21T08:02:25.390Z,80.62
2018-03-21T08:03:25.533Z,80.62
2018-03-21T08:04:25.696Z,80.24
2018-03-21T08:05:25.866Z,80.71
2018-03-21T08:06:25.989Z,80.33
2018-03-21T08:07:26.143Z,79.57
2018-03-21T08:08:26.293Z,79.86
2018-03-21T08:09:26.459Z,79.10
2018-03-21T08:10:26.611Z,79.10
2018-03-21T08:11:26.762Z,79.10
2018-03-21T08:12:26.922Z,78.25
2018-03-21T08:13:27.062Z,78.16
2018-03-21T08:14:27.223Z,78.76
2018-03-21T08:15:27.362Z,79.10
2018-03-21T08:16:27.517Z,79.14
2018-03-21T08:17:27.674Z,78.76
2018-03-21T08:18:27.820Z,79.05
2018-03-21T08:19:27.971Z,79.05
2018-03-21T08:20:28.131Z,78.95
2018-03-21T08:21:28.685Z,78.58
2018-03-21T08:22:28.468Z,78.10
2018-03-21T08:23:28.686Z,77.82
2018-03-21T08:24:28.794Z,77.53
2018-03-21T08:25:28.947Z,77.44
2018-03-21T08:26:29.098Z,77.91
2018-03-21T08:27:29.250Z,78.10
2018-03-21T08:28:29.405Z,77.25
2018-03-21T08:29:29.553Z,77.82
2018-03-21T08:30:29.715Z,76.97
2018-03-21T08:31:29.855Z,77.25
2018-03-21T08:32:30.010Z,77.06
2018-03-21T08:33:30.160Z,77.34
2018-03-21T08:34:30.340Z,77.20
2018-03-21T08:35:30.474Z,76.44
2018-03-21T08:36:30.619Z,76.72
2018-03-21T08:37:30.776Z,76.63
2018-03-21T08:38:30.919Z,76.72
2018-03-21T08:39:31.071Z,76.06
2018-03-21T08:40:31.221Z,76.82
2018-03-21T08:41:31.376Z,76.63
2018-03-21T08:42:31.528Z,76.15
2018-03-21T08:43:31.748Z,75.21
2018-03-21T08:44:31.830Z,75.31
2018-03-21T08:45:31.985Z,74.93
2018-03-21T08:46:32.148Z,75.31
2018-03-21T08:47:32.307Z,74.74
2018-03-21T08:48:32.465Z,74.93
2018-03-21T08:49:32.621Z,74.83
2018-03-21T08:50:32.769Z,74.74
2018-03-21T08:51:32.920Z,75.02
2018-03-21T08:52:33.076Z,74.40
2018-03-21T08:53:33.227Z,74.30
2018-03-21T08:54:33.382Z,74.49
2018-03-21T08:55:33.540Z,73.45
2018-03-21T08:56:33.690Z,73.07
2018-03-21T08:57:33.846Z,72.78
2018-03-21T08:58:33.998Z,73.26
2018-03-21T08:59:34.148Z,73.07
2018-03-21T09:00:34.302Z,72.88
2018-03-21T09:01:34.454Z,73.35
2018-03-21T09:02:34.614Z,73.26
2018-03-21T09:03:34.770Z,72.63
2018-03-21T09:04:34.922Z,72.63
2018-03-21T09:05:35.081Z,72.25
2018-03-21T09:06:35.227Z,72.06
2018-03-21T09:07:35.391Z,70.45
2018-03-21T09:08:35.525Z,69.22
2018-03-21T09:09:35.678Z,68.75
2018-03-21T09:10:35.840Z,68.27
2018-03-21T09:11:35.980Z,68.08
2018-03-21T09:12:36.156Z,68.18
2018-03-21T09:13:36.288Z,68.94
2018-03-21T09:14:36.445Z,69.03
2018-03-21T09:15:36.599Z,68.59
2018-03-21T09:16:36.749Z,67.93
2018-03-21T09:17:36.914Z,67.74
2018-03-21T09:18:37.053Z,65.75
2018-03-21T09:19:37.206Z,65.94
2018-03-21T09:20:37.393Z,66.80
2018-03-21T09:21:37.517Z,66.80
2018-03-21T09:22:37.664Z,66.80
2018-03-21T09:23:37.822Z,66.22
2018-03-21T09:24:37.983Z,65.75
2018-03-21T09:25:38.126Z,66.32
2018-03-21T09:26:38.272Z,65.31
2018-03-21T09:27:38.436Z,64.14
2018-03-21T09:28:38.590Z,63.85
2018-03-21T09:29:38.744Z,63.85
2018-03-21T09:30:38.899Z,63.42
2018-03-21T09:31:39.057Z,63.70
2018-03-21T09:32:39.203Z,63.04
2018-03-21T09:33:39.356Z,61.61
2018-03-21T09:34:39.510Z,61.90
2018-03-21T09:35:39.664Z,62.75
2018-03-21T09:36:39.819Z,62.94
2018-03-21T09:37:39.973Z,61.90
2018-03-21T09:38:40.129Z,60.86
2018-03-21T09:39:40.279Z,59.15
2018-03-21T09:40:40.436Z,58.01
2018-03-21T09:41:40.584Z,57.92
2018-03-21T09:42:40.744Z,58.67
2018-03-21T09:43:40.887Z,58.58
2018-03-21T09:44:41.044Z,58.80
2018-03-21T09:45:41.204Z,60.03
2018-03-21T09:46:41.355Z,59.27
2018-03-21T09:47:41.503Z,58.89
2018-03-21T09:48:41.710Z,57.95
2018-03-21T09:49:41.826Z,56.34
2018-03-21T09:50:41.962Z,56.62
2018-03-21T09:51:42.120Z,56.15
2018-03-21T09:52:42.277Z,56.71
2018-03-21T09:53:42.424Z,56.62
2018-03-21T09:54:42.581Z,55.96
2018-03-21T09:55:42.737Z,56.81
2018-03-21T09:56:42.888Z,56.71
2018-03-21T09:57:43.040Z,57.38
2018-03-21T09:58:43.204Z,56.90
2018-03-21T09:59:43.363Z,56.17
2018-03-21T10:00:43.606Z,56.55
2018-03-21T10:01:43.677Z,55.70
2018-03-21T10:02:43.835Z,55.32
2018-03-21T10:03:43.989Z,55.89
2018-03-21T10:04:44.141Z,55.70
2018-03-21T10:05:44.296Z,56.27
2018-03-21T10:06:44.451Z,55.60
2018-03-21T10:07:44.606Z,55.70
2018-03-21T10:08:44.812Z,55.60
2018-03-21T10:09:44.908Z,55.13
2018-03-21T10:10:45.068Z,55.32
2018-03-21T10:11:45.248Z,54.68
2018-03-21T10:12:45.362Z,54.78
2018-03-21T10:13:45.517Z,54.30
2018-03-21T10:14:45.677Z,54.39
2018-03-21T10:15:45.834Z,54.39
2018-03-21T10:16:45.995Z,53.92
2018-03-21T10:17:46.165Z,53.73
2018-03-21T10:18:46.303Z,52.78
2018-03-21T10:19:46.455Z,53.92
2018-03-21T10:20:46.611Z,52.97
2018-03-21T10:21:46.768Z,53.07
2018-03-21T10:22:46.922Z,52.59
2018-03-21T10:23:47.126Z,51.48
2018-03-21T10:24:47.233Z,51.39
2018-03-21T10:25:47.408Z,51.57
2018-03-21T10:26:47.566Z,51.57
2018-03-21T10:27:47.722Z,51.67
2018-03-21T10:28:47.879Z,50.72
2018-03-21T10:29:48.039Z,51.67
2018-03-21T10:30:48.196Z,51.57
2018-03-21T10:31:48.358Z,51.67
2018-03-21T10:32:48.517Z,52.62
2018-03-21T10:33:48.687Z,51.48
2018-03-21T10:34:48.842Z,51.20
2018-03-21T10:35:49.013Z,50.37
2018-03-21T10:36:49.149Z,49.70
2018-03-21T10:37:49.308Z,50.65
2018-03-21T10:38:49.457Z,49.04
2018-03-21T10:39:49.615Z,48.63
2018-03-21T10:40:49.787Z,48.63
2018-03-21T10:41:49.942Z,48.91
2018-03-21T10:42:50.092Z,49.49
2018-03-21T10:43:50.251Z,49.77
2018-03-21T10:44:50.409Z,48.35
2018-03-21T10:45:50.565Z,48.72
2018-03-21T10:46:50.723Z,49.29
2018-03-21T10:47:50.900Z,49.96
2018-03-21T10:48:51.071Z,49.58
2018-03-21T10:49:51.215Z,49.87
2018-03-21T10:50:51.373Z,49.29
2018-03-21T10:51:51.535Z,48.35
2018-03-21T10:52:51.684Z,48.54
2018-03-21T10:53:51.844Z,49.01
2018-03-21T10:54:52.003Z,50.53
2018-03-21T10:55:52.162Z,50.72
2018-03-21T10:56:52.330Z,49.20
2018-03-21T10:57:52.900Z,49.20
2018-03-21T10:58:52.666Z,48.75
2018-03-21T10:59:52.792Z,47.89
2018-03-21T11:00:52.972Z,47.13
2018-03-21T11:01:53.128Z,46.66
2018-03-21T11:02:53.288Z,45.52
2018-03-21T11:03:53.484Z,46.19
2018-03-21T11:04:53.637Z,47.13
2018-03-21T11:05:53.820Z,47.61
2018-03-21T11:06:53.977Z,46.85
2018-03-21T11:07:54.141Z,46.00
2018-03-21T11:08:54.301Z,45.52
2018-03-21T11:09:54.454Z,46.94
2018-03-21T11:10:54.613Z,47.42
2018-03-21T11:11:54.808Z,48.08
2018-03-21T11:12:54.932Z,48.46
2018-03-21T11:14:10.012Z,48.66
2018-03-21T11:14:55.281Z,48.94
2018-03-21T11:15:55.435Z,47.99
2018-03-21T11:16:55.594Z,47.23
2018-03-21T11:17:55.752Z,47.61
2018-03-21T11:18:55.908Z,46.75
2018-03-21T11:19:56.083Z,46.85
2018-03-21T11:20:56.229Z,46.28
2018-03-21T11:21:56.394Z,46.85
2018-03-21T11:22:56.545Z,47.92
2018-03-21T11:23:56.716Z,48.30
2018-03-21T11:24:56.875Z,48.21
2018-03-21T11:25:57.032Z,48.21
2018-03-21T11:26:57.201Z,47.63
2018-03-21T11:27:57.359Z,46.97
2018-03-21T11:28:57.519Z,46.20
2018-03-21T11:29:57.686Z,44.87
2018-03-21T11:30:57.836Z,45.07
2018-03-21T11:31:58.008Z,44.21
2018-03-21T11:32:58.184Z,44.21
2018-03-21T11:33:58.322Z,44.02
2018-03-21T11:34:58.493Z,44.21
2018-03-21T11:35:58.628Z,45.07
2018-03-21T11:36:58.795Z,44.78
2018-03-21T11:37:58.939Z,45.07
2018-03-21T11:38:59.135Z,44.12
2018-03-21T11:39:59.254Z,44.02
2018-03-21T11:40:59.413Z,43.07
2018-03-21T11:41:59.571Z,42.31
2018-03-21T11:42:59.729Z,42.21
2018-03-21T11:43:59.887Z,42.02
2018-03-21T11:45:00.051Z,41.93
2018-03-21T11:46:00.203Z,41.74
2018-03-21T11:47:00.362Z,42.60
2018-03-21T11:48:00.519Z,42.50
2018-03-21T11:49:00.690Z,42.97
2018-03-21T11:50:00.863Z,42.31
2018-03-21T11:51:01.014Z,41.93
2018-03-21T11:52:01.168Z,41.38
2018-03-21T11:53:01.339Z,41.47
2018-03-21T14:31:45.234Z,16.11
2018-03-21T14:32:45.391Z,14.95
2018-03-21T14:33:45.553Z,14.58
2018-03-21T14:34:45.726Z,14.76
2018-03-21T14:35:46.038Z,15.42
2018-03-21T14:36:46.077Z,15.89
2018-03-21T14:37:46.260Z,15.89
2018-03-21T14:38:46.431Z,16.94
2018-03-21T14:39:46.601Z,17.32
2018-03-21T14:40:46.774Z,16.26
2018-03-21T14:41:46.941Z,17.03
2018-03-21T14:42:47.109Z,16.84
2018-03-21T14:43:47.282Z,16.16
2018-03-21T14:44:47.452Z,15.97
2018-03-21T14:45:47.623Z,15.59
2018-03-21T14:46:47.793Z,16.14
2018-03-21T14:47:47.966Z,16.81
2018-03-21T14:48:48.145Z,18.05
2018-03-21T14:49:48.347Z,19.10
2018-03-21T14:50:48.481Z,19.57
2018-03-21T14:51:48.645Z,19.66
2018-03-21T14:52:48.836Z,18.80
2018-03-21T14:53:49.119Z,19.47
2018-03-21T14:54:49.383Z,19.76
2018-03-21T14:55:49.326Z,19.76
2018-03-21T14:56:49.499Z,19.66
2018-03-21T14:57:49.675Z,19.66
2018-03-21T14:58:49.842Z,19.56
2018-03-21T14:59:50.012Z,19.38
2018-03-21T15:00:50.188Z,19.56
2018-03-21T15:01:50.363Z,19.65
2018-03-21T15:02:50.541Z,19.94
2018-03-21T15:03:50.711Z,20.89
2018-03-21T15:04:50.883Z,21.45
2018-03-21T15:05:51.049Z,22.41
2018-03-21T15:06:51.220Z,22.41
2018-03-21T15:07:51.396Z,22.80
2018-03-21T15:08:51.569Z,23.17
2018-03-21T15:09:51.737Z,23.55
2018-03-21T15:10:51.921Z,23.44
2018-03-21T15:11:52.091Z,24.59
2018-03-21T15:12:52.265Z,24.68
2018-03-21T15:13:52.452Z,24.67
2018-03-21T15:14:52.619Z,24.96
2018-03-21T15:15:52.789Z,25.15
2018-03-21T15:16:52.959Z,25.71
2018-03-21T15:17:53.127Z,25.70
2018-03-21T15:18:53.305Z,25.90
2018-03-21T15:19:53.471Z,26.17
2018-03-21T15:20:53.646Z,25.81
2018-03-21T15:21:53.822Z,26.85
2018-03-21T15:22:54.005Z,27.79
2018-03-21T15:23:54.169Z,28.64
2018-03-21T15:24:54.344Z,27.99
2018-03-21T15:25:54.517Z,28.66
2018-03-21T15:26:54.700Z,29.31
2018-03-21T15:27:54.864Z,30.65
2018-03-21T15:28:55.031Z,30.65
2018-03-21T15:29:55.212Z,31.21
2018-03-21T15:30:55.408Z,30.47
2018-03-21T15:31:55.565Z,29.50